Time;durP1;ratioP1;P1;durP2;ratioP2;P2;SDS_P1;SDS_P2;PMS_P1;PMS_P2;Temp;Humidity;BMP_temperature;BMP_pressure;BME280_temperature;BME280_humidity;BME280_pressure;Samples;Min_cycle;Max_cycle;Signal;HPM_P1;HPM_P2
2022/03/10 00:01:42;;;;;;;4.80;2.80;;;;;;;13.68;26.56;97447.16;5036120;28;20105;-28
2022/03/10 00:04:08;;;;;;;3.95;2.33;;;;;;;13.62;26.66;97446.09;5034570;28;20080;-27
2022/03/10 00:06:33;;;;;;;4.40;2.60;;;;;;;13.57;26.67;97446.59;5036027;28;20087;-27
2022/03/10 00:08:59;;;;;;;4.75;2.40;;;;;;;13.64;26.64;97441.00;5035996;28;20077;-28
2022/03/10 00:11:24;;;;;;;5.60;3.08;;;;;;;13.58;26.59;97448.13;5035947;28;20030;-26
2022/03/10 00:13:50;;;;;;;4.53;2.78;;;;;;;13.55;26.90;97443.53;5036186;28;20029;-27
2022/03/10 00:16:15;;;;;;;4.43;2.60;;;;;;;13.56;26.56;97442.34;5035997;28;20029;-26
2022/03/10 00:18:41;;;;;;;6.35;2.97;;;;;;;13.66;26.40;97439.38;5035654;28;20021;-26
2022/03/10 00:21:07;;;;;;;5.05;2.60;;;;;;;13.67;26.17;97451.06;5035746;28;20052;-27
2022/03/10 00:23:32;;;;;;;5.63;2.90;;;;;;;13.63;26.56;97458.53;5035765;28;20072;-26
2022/03/10 00:25:58;;;;;;;4.93;2.97;;;;;;;13.70;26.44;97454.91;5035464;28;20057;-26
2022/03/10 00:28:24;;;;;;;5.63;2.95;;;;;;;13.62;26.30;97457.75;5034840;28;20163;-26
2022/03/10 00:30:49;;;;;;;3.92;2.72;;;;;;;13.60;26.47;97453.91;5033854;28;20041;-27
2022/03/10 00:33:15;;;;;;;4.40;2.33;;;;;;;13.62;26.22;97454.28;5035521;28;20018;-27
2022/03/10 00:35:44;;;;;;;6.63;2.40;;;;;;;13.61;26.21;97447.28;5035350;28;20033;-26
2022/03/10 00:38:10;;;;;;;3.15;2.17;;;;;;;13.59;26.75;97457.84;5035549;28;20032;-26
2022/03/10 00:40:35;;;;;;;4.15;2.45;;;;;;;13.59;26.09;97455.13;5035563;28;20021;-27
2022/03/10 00:43:01;;;;;;;3.47;2.47;;;;;;;13.62;26.48;97457.75;5035189;28;20022;-28
2022/03/10 00:45:27;;;;;;;4.25;2.40;;;;;;;13.64;26.45;97454.63;5035303;28;20021;-26
2022/03/10 00:47:54;;;;;;;3.97;2.22;;;;;;;13.47;26.35;97453.81;5035225;28;20021;-27
2022/03/10 00:50:20;;;;;;;3.92;2.30;;;;;;;13.58;26.26;97454.38;5034023;28;20402;-26
2022/03/10 00:52:47;;;;;;;3.45;2.42;;;;;;;13.57;26.64;97458.28;5035104;28;20025;-27
2022/03/10 00:55:16;;;;;;;4.10;2.20;;;;;;;13.60;26.13;97462.09;5035212;28;20021;-27
2022/03/10 00:57:42;;;;;;;3.17;1.90;;;;;;;13.62;26.39;97462.44;5035191;28;20409;-28
2022/03/10 01:00:09;;;;;;;3.58;2.03;;;;;;;13.60;26.12;97456.63;5035140;28;20079;-26
2022/03/10 01:02:34;;;;;;;3.97;2.10;;;;;;;13.54;26.47;97466.50;5035125;28;20021;-26
2022/03/10 01:05:01;;;;;;;3.40;2.00;;;;;;;13.60;26.22;97473.00;5033760;28;20428;-28
2022/03/10 01:07:26;;;;;;;3.25;2.20;;;;;;;13.57;26.13;97462.97;5033340;28;20034;-27
2022/03/10 01:09:52;;;;;;;3.40;2.00;;;;;;;13.60;26.01;97462.09;5035002;28;20044;-26
2022/03/10 01:12:18;;;;;;;2.30;1.77;;;;;;;13.56;26.03;97469.59;5034893;28;20403;-26
2022/03/10 01:14:47;;;;;;;2.90;1.65;;;;;;;13.54;26.25;97469.25;5034764;28;20064;-28
2022/03/10 01:17:13;;;;;;;3.17;2.05;;;;;;;13.45;26.02;97466.31;5034793;28;20025;-26
2022/03/10 01:19:38;;;;;;;3.17;1.92;;;;;;;13.53;26.47;97457.56;5034657;28;20080;-26
2022/03/10 01:22:04;;;;;;;2.70;2.03;;;;;;;13.53;26.03;97456.81;5034573;28;20499;-26
2022/03/10 01:24:30;;;;;;;2.58;1.50;;;;;;;13.46;25.91;97459.69;5034574;28;20053;-26
2022/03/10 01:26:56;;;;;;;2.72;1.70;;;;;;;13.51;26.13;97461.91;5034950;28;20034;-26
2022/03/10 01:29:21;;;;;;;2.40;1.58;;;;;;;13.56;25.99;97445.06;5034728;28;20071;-27
2022/03/10 01:31:47;;;;;;;2.92;1.67;;;;;;;13.56;25.92;97445.06;5034463;28;20107;-27
2022/03/10 01:34:13;;;;;;;2.58;1.85;;;;;;;13.47;25.84;97456.53;5034232;28;20487;-27
2022/03/10 01:36:40;;;;;;;3.60;1.65;;;;;;;13.41;25.89;97450.03;5034525;28;20025;-26
2022/03/10 01:39:06;;;;;;;2.85;1.85;;;;;;;13.45;26.09;97455.41;5034150;28;20469;-27
2022/03/10 01:41:33;;;;;;;2.72;1.40;;;;;;;13.44;26.16;97456.59;5033569;28;20030;-26
2022/03/10 01:44:05;;;;;;;2.95;1.70;;;;;;;13.50;26.29;97452.94;5034258;28;20026;-26
2022/03/10 01:46:31;;;;;;;2.78;1.33;;;;;;;13.55;25.88;97444.28;5034280;28;20040;-26
2022/03/10 01:48:57;;;;;;;2.60;1.50;;;;;;;13.40;26.03;97455.91;5034299;28;20014;-26
2022/03/10 01:51:24;;;;;;;2.67;1.40;;;;;;;13.45;25.98;97444.50;5034251;28;20025;-26
2022/03/10 01:53:50;;;;;;;2.08;1.50;;;;;;;13.35;26.38;97453.69;5034567;28;20029;-27
2022/03/10 01:56:21;;;;;;;3.22;1.63;;;;;;;13.46;26.17;97446.06;5033969;28;20026;-29
2022/03/10 01:58:49;;;;;;;2.50;1.50;;;;;;;13.42;25.98;97448.84;5033702;28;20026;-26
2022/03/10 02:01:15;;;;;;;2.35;1.50;;;;;;;13.51;25.72;97443.59;5033891;28;20025;-26
2022/03/10 02:03:41;;;;;;;2.20;1.48;;;;;;;13.45;25.88;97439.06;5033847;28;20401;-28
2022/03/10 02:06:14;;;;;;;2.78;1.60;;;;;;;13.44;25.88;97441.03;5033740;28;20051;-27
2022/03/10 02:11:24;;;;;;;2.22;1.77;;;;;;;13.41;26.29;97443.81;5033873;28;20032;-28
2022/03/10 02:13:51;;;;;;;2.30;1.60;;;;;;;13.46;25.91;97444.09;5033807;28;20477;-28
2022/03/10 02:19:03;;;;;;;3.83;1.80;;;;;;;13.38;26.08;97436.47;5033641;28;20520;-26
2022/03/10 02:21:29;;;;;;;3.05;1.80;;;;;;;13.24;26.51;97438.28;5032348;28;20468;-28
2022/03/10 02:23:54;;;;;;;2.28;1.60;;;;;;;13.23;26.29;97433.25;5033593;28;20037;-27
2022/03/10 02:26:20;;;;;;;2.97;1.80;;;;;;;13.38;26.05;97429.06;5033616;28;20068;-26
2022/03/10 02:28:48;;;;;;;3.38;1.90;;;;;;;13.29;25.83;97437.81;5033474;28;20025;-26
2022/03/10 02:31:14;;;;;;;3.08;1.85;;;;;;;13.46;25.95;97440.59;5033434;28;20100;-26
2022/03/10 02:33:40;;;;;;;2.97;1.77;;;;;;;13.50;25.94;97428.44;5033621;28;20466;-27
2022/03/10 02:36:06;;;;;;;2.97;1.95;;;;;;;13.49;26.12;97428.84;5033413;28;20090;-27
2022/03/10 02:38:31;;;;;;;4.75;1.90;;;;;;;13.43;26.16;97430.53;5033657;28;20029;-27
2022/03/10 02:40:57;;;;;;;2.85;1.92;;;;;;;13.35;25.94;97431.88;5033507;28;20032;-26
2022/03/10 02:43:23;;;;;;;2.75;1.83;;;;;;;13.23;26.52;97431.28;5033580;28;20025;-27
2022/03/10 02:45:49;;;;;;;3.35;2.10;;;;;;;13.45;26.24;97428.16;5033183;28;20036;-26
2022/03/10 02:48:15;;;;;;;2.85;1.90;;;;;;;13.35;25.95;97424.47;5033247;28;20096;-26
2022/03/10 02:50:42;;;;;;;2.65;1.80;;;;;;;13.39;26.17;97416.97;5031979;28;20029;-27
2022/03/10 02:53:08;;;;;;;3.72;1.90;;;;;;;13.38;25.90;97417.41;5035573;28;20037;-26
2022/03/10 02:55:33;;;;;;;3.08;2.10;;;;;;;13.39;25.96;97424.38;5037386;28;20026;-26
2022/03/10 02:57:59;;;;;;;3.25;2.05;;;;;;;13.35;26.50;97421.75;5037328;28;20481;-26
2022/03/10 03:00:25;;;;;;;3.35;2.10;;;;;;;13.41;25.99;97422.00;5037313;28;20040;-27
2022/03/10 03:02:50;;;;;;;3.50;2.13;;;;;;;13.40;26.07;97417.75;5037311;28;20033;-27
2022/03/10 03:05:34;;;;;;;3.45;2.20;;;;;;;13.34;26.10;97409.31;5037030;28;20049;-28
2022/03/10 03:08:00;;;;;;;3.60;2.40;;;;;;;13.32;26.46;97413.66;5036987;28;20115;-26
2022/03/10 03:10:25;;;;;;;2.58;2.00;;;;;;;13.37;26.32;97415.84;5037138;28;20025;-26
2022/03/10 03:12:52;;;;;;;4.65;2.00;;;;;;;13.36;26.09;97414.31;5036940;28;20377;-28
2022/03/10 03:15:18;;;;;;;2.83;1.83;;;;;;;13.33;26.24;97415.19;5037249;28;20032;-26
2022/03/10 03:17:44;;;;;;;4.43;2.20;;;;;;;13.31;26.27;97415.59;5036929;28;20024;-27
2022/03/10 03:20:14;;;;;;;4.13;2.35;;;;;;;13.30;26.26;97420.28;5036851;28;20030;-26
2022/03/10 03:22:44;;;;;;;4.57;2.33;;;;;;;13.40;25.95;97415.78;5036769;28;20022;-26
2022/03/10 03:25:17;;;;;;;4.50;2.42;;;;;;;13.38;26.03;97418.16;5036820;28;20029;-26
2022/03/10 03:27:43;;;;;;;4.57;2.58;;;;;;;13.37;26.25;97402.22;5036831;28;20076;-27
2022/03/10 03:30:10;;;;;;;4.63;2.65;;;;;;;13.40;26.18;97415.78;5036801;28;20045;-27
2022/03/10 03:32:35;;;;;;;5.75;2.40;;;;;;;13.37;26.32;97411.19;5036831;28;20033;-27
2022/03/10 03:35:02;;;;;;;4.65;2.53;;;;;;;13.32;26.21;97408.19;5036884;28;20042;-27
2022/03/10 03:37:28;;;;;;;4.35;2.80;;;;;;;13.32;26.30;97411.69;5036778;28;20025;-26
2022/03/10 03:39:53;;;;;;;4.00;2.78;;;;;;;13.24;26.42;97426.63;5036671;28;20532;-28
2022/03/10 03:42:19;;;;;;;3.95;2.40;;;;;;;13.28;25.90;97425.38;5036434;28;20037;-27
2022/03/10 03:44:45;;;;;;;3.30;2.30;;;;;;;13.34;26.26;97424.91;5035253;28;20045;-27
2022/03/10 03:47:10;;;;;;;4.72;2.83;;;;;;;13.35;26.42;97426.44;5036847;28;20413;-27
2022/03/10 03:49:36;;;;;;;4.82;2.53;;;;;;;13.31;26.47;97423.78;5036260;28;20048;-27
2022/03/10 03:52:01;;;;;;;4.70;2.63;;;;;;;13.34;26.31;97422.16;5036367;28;20542;-28
2022/03/10 03:54:27;;;;;;;6.15;2.50;;;;;;;13.28;26.46;97419.94;5036390;28;20021;-27
2022/03/10 03:56:54;;;;;;;4.63;2.60;;;;;;;13.28;26.50;97436.28;5036127;28;20025;-28
2022/03/10 03:59:20;;;;;;;4.47;2.40;;;;;;;13.39;26.02;97429.84;5036550;28;20083;-26
2022/03/10 04:01:46;;;;;;;3.72;2.42;;;;;;;13.39;26.09;97432.56;5034909;28;20049;-27
2022/03/10 04:04:11;;;;;;;5.00;2.70;;;;;;;13.34;26.51;97431.13;5034145;28;20520;-27
2022/03/10 04:06:37;;;;;;;4.57;2.40;;;;;;;13.27;26.47;97434.72;5036103;28;20025;-27
2022/03/10 04:09:02;;;;;;;3.78;2.25;;;;;;;13.23;26.15;97436.75;5035919;28;20017;-28
2022/03/10 04:11:31;;;;;;;3.00;2.05;;;;;;;13.27;26.32;97444.84;5036115;28;20075;-26
2022/03/10 04:13:57;;;;;;;4.40;2.97;;;;;;;13.28;26.14;97433.53;5036442;28;20032;-26
2022/03/10 04:16:23;;;;;;;3.97;2.33;;;;;;;13.27;26.49;97444.84;5035773;28;20096;-26
2022/03/10 04:18:48;;;;;;;3.20;2.13;;;;;;;13.34;26.13;97438.53;5035793;28;20025;-26
2022/03/10 04:21:14;;;;;;;4.32;2.33;;;;;;;13.32;26.37;97436.22;5035736;28;20045;-26
2022/03/10 04:23:40;;;;;;;4.07;2.40;;;;;;;13.23;26.19;97434.03;5035760;28;20040;-26
2022/03/10 04:26:06;;;;;;;4.25;2.30;;;;;;;13.35;26.28;97440.81;5035665;28;20100;-26
2022/03/10 04:28:31;;;;;;;4.10;2.85;;;;;;;13.32;26.17;97440.88;5036059;28;20129;-26
2022/03/10 04:30:57;;;;;;;4.95;2.15;;;;;;;13.25;26.30;97437.09;5035723;28;20079;-27
2022/03/10 04:33:22;;;;;;;4.30;2.70;;;;;;;13.28;25.98;97435.50;5034293;28;20029;-26
2022/03/10 04:35:52;;;;;;;4.13;2.33;;;;;;;13.17;26.38;97441.16;5035401;28;20044;-26
2022/03/10 04:38:18;;;;;;;3.80;2.40;;;;;;;13.23;26.10;97444.91;5035344;28;20053;-26
2022/03/10 04:40:43;;;;;;;3.72;2.55;;;;;;;13.27;26.47;97453.03;5035429;28;20478;-26
2022/03/10 04:43:09;;;;;;;3.78;2.38;;;;;;;13.39;26.08;97446.94;5035534;28;20471;-27
2022/03/10 04:45:34;;;;;;;4.13;2.40;;;;;;;13.34;26.37;97450.19;5035247;28;20022;-27
2022/03/10 04:48:02;;;;;;;3.50;2.42;;;;;;;13.33;26.37;97451.38;5035543;28;20022;-26
2022/03/10 04:50:29;;;;;;;3.67;1.90;;;;;;;13.36;26.09;97457.91;5035560;28;20063;-27
2022/03/10 04:52:54;;;;;;;4.20;2.30;;;;;;;13.29;25.91;97456.88;5034985;28;20025;-26
2022/03/10 04:55:20;;;;;;;3.45;2.10;;;;;;;13.18;26.57;97461.75;5035235;28;20021;-28
2022/03/10 04:57:46;;;;;;;2.58;1.90;;;;;;;13.21;26.31;97452.75;5035101;28;20017;-27
2022/03/10 05:00:13;;;;;;;2.75;1.95;;;;;;;13.26;26.44;97454.97;5035005;28;20469;-28
2022/03/10 05:02:39;;;;;;;2.97;1.92;;;;;;;13.33;26.25;97451.38;5035018;28;20539;-28
2022/03/10 05:05:07;;;;;;;2.60;1.90;;;;;;;13.40;25.88;97453.94;5034766;28;20056;-27
2022/03/10 05:07:32;;;;;;;3.30;1.88;;;;;;;13.15;26.61;97454.41;5035093;28;20414;-27
2022/03/10 05:09:58;;;;;;;2.60;1.80;;;;;;;13.17;26.41;97452.06;5034906;28;20064;-26
2022/03/10 05:12:25;;;;;;;2.67;1.60;;;;;;;13.21;26.10;97452.00;5034737;28;20079;-27
2022/03/10 05:14:51;;;;;;;3.15;2.00;;;;;;;13.24;26.42;97454.63;5033988;28;20028;-28
2022/03/10 05:17:17;;;;;;;2.95;1.88;;;;;;;13.23;25.86;97457.78;5034886;28;20025;-26
2022/03/10 05:19:43;;;;;;;4.78;2.10;;;;;;;13.24;26.38;97462.81;5033650;28;20079;-28
2022/03/10 05:22:08;;;;;;;2.35;1.60;;;;;;;13.30;26.16;97461.16;5034695;28;20454;-27
2022/03/10 05:24:34;;;;;;;2.90;1.67;;;;;;;13.24;26.10;97462.03;5034378;28;20037;-28
2022/03/10 05:27:00;;;;;;;4.07;2.08;;;;;;;13.28;26.42;97460.78;5034578;28;20075;-27
2022/03/10 05:29:26;;;;;;;3.40;1.85;;;;;;;13.26;25.99;97460.44;5034489;28;20022;-27
2022/03/10 05:31:52;;;;;;;3.53;1.95;;;;;;;13.32;25.95;97458.00;5034513;28;20092;-27
2022/03/10 05:34:18;;;;;;;2.60;2.00;;;;;;;13.37;26.04;97456.72;5034378;28;20079;-27
2022/03/10 05:36:44;;;;;;;2.63;1.90;;;;;;;13.23;26.22;97455.03;5034656;28;20036;-28
2022/03/10 05:39:09;;;;;;;4.85;2.08;;;;;;;13.25;26.06;97452.69;5034197;28;20037;-27
2022/03/10 05:41:35;;;;;;;3.65;2.20;;;;;;;13.20;26.05;97453.94;5032939;28;20056;-26
2022/03/10 05:44:01;;;;;;;3.88;2.30;;;;;;;13.26;26.10;97462.38;5034405;28;20029;-27
2022/03/10 05:46:26;;;;;;;3.65;1.88;;;;;;;13.24;26.28;97456.59;5034281;28;20035;-27
2022/03/10 05:48:52;;;;;;;4.60;2.33;;;;;;;13.24;26.41;97462.03;5034158;28;20021;-27
2022/03/10 05:51:19;;;;;;;3.28;2.13;;;;;;;13.21;25.83;97463.66;5033960;28;20075;-27
2022/03/10 05:53:44;;;;;;;4.38;1.80;;;;;;;13.13;26.14;97467.66;5034061;28;20025;-28
2022/03/10 05:56:10;;;;;;;3.63;2.47;;;;;;;13.16;26.42;97466.09;5033603;28;20381;-27
2022/03/10 05:58:36;;;;;;;3.47;2.20;;;;;;;13.15;26.44;97465.31;5034142;28;20034;-26
2022/03/10 06:01:02;;;;;;;3.40;2.10;;;;;;;13.11;26.52;97470.03;5034016;28;20104;-26
2022/03/10 06:03:27;;;;;;;3.60;2.10;;;;;;;13.20;26.43;97466.81;5033589;28;20366;-27
2022/03/10 06:05:53;;;;;;;2.95;1.85;;;;;;;13.12;25.99;97468.06;5033745;28;20029;-26
2022/03/10 06:08:18;;;;;;;4.65;2.33;;;;;;;13.14;26.11;97469.22;5033951;28;20028;-28
2022/03/10 06:10:44;;;;;;;2.85;1.92;;;;;;;13.10;26.08;97473.97;5033756;28;20504;-26
2022/03/10 06:13:10;;;;;;;3.70;2.30;;;;;;;13.20;26.11;97469.53;5033867;28;20032;-26
2022/03/10 06:15:36;;;;;;;4.18;1.90;;;;;;;13.19;26.07;97471.47;5033649;28;20021;-27
2022/03/10 06:18:02;;;;;;;5.80;1.70;;;;;;;13.22;26.07;97478.06;5033532;28;20036;-26
2022/03/10 06:20:30;;;;;;;3.20;1.92;;;;;;;13.12;26.27;97482.47;5030625;28;20025;-26
2022/03/10 06:23:01;;;;;;;3.80;1.85;;;;;;;13.20;26.39;97481.19;5031468;28;20056;-26
2022/03/10 06:25:27;;;;;;;3.13;1.80;;;;;;;13.20;26.48;97481.19;5031642;28;20599;-28
2022/03/10 06:27:53;;;;;;;3.03;2.00;;;;;;;13.21;25.98;97485.44;5031075;28;20116;-26
2022/03/10 06:30:19;;;;;;;2.88;2.05;;;;;;;13.20;26.28;97486.63;5031516;28;20148;-27
2022/03/10 06:32:45;;;;;;;3.17;1.90;;;;;;;13.19;26.27;97482.38;5029496;28;20025;-27
2022/03/10 06:35:11;;;;;;;3.20;2.00;;;;;;;13.19;26.25;97487.06;5031227;28;20539;-28
2022/03/10 06:37:36;;;;;;;3.42;2.22;;;;;;;13.16;26.38;97488.66;5031413;28;20021;-29
2022/03/10 06:40:03;;;;;;;5.20;2.40;;;;;;;13.17;26.56;97479.28;5030217;28;20037;-30
2022/03/10 06:42:30;;;;;;;3.90;1.90;;;;;;;13.25;26.41;97488.09;5031015;28;20037;-28
2022/03/10 06:44:56;;;;;;;5.38;2.40;;;;;;;13.19;26.47;97487.81;5031363;28;20036;-29
2022/03/10 06:47:21;;;;;;;5.10;2.55;;;;;;;13.23;26.44;97491.22;5031559;28;20021;-29
2022/03/10 06:49:47;;;;;;;3.90;2.00;;;;;;;13.27;26.31;97486.50;5031461;28;20021;-29
2022/03/10 06:52:13;;;;;;;3.00;1.75;;;;;;;13.23;26.45;97493.94;5031051;28;20100;-29
2022/03/10 06:54:41;;;;;;;3.00;2.10;;;;;;;13.24;26.59;97495.50;5030869;28;20518;-27
2022/03/10 06:57:08;;;;;;;3.70;2.30;;;;;;;13.16;26.18;97494.09;5031084;28;20029;-28
2022/03/10 06:59:34;;;;;;;4.65;2.20;;;;;;;13.23;26.73;97498.63;5031053;28;20026;-27
2022/03/10 07:01:59;;;;;;;3.75;2.10;;;;;;;13.23;26.50;97499.41;5031192;28;20139;-27
2022/03/10 07:04:25;;;;;;;2.78;1.80;;;;;;;13.28;26.72;97501.66;5030594;28;20128;-26
2022/03/10 07:06:51;;;;;;;3.95;2.35;;;;;;;13.11;26.80;97496.50;5031044;28;20045;-28
2022/03/10 07:09:18;;;;;;;3.15;2.10;;;;;;;13.13;26.92;97505.00;5031270;28;20134;-27
2022/03/10 07:11:44;;;;;;;4.88;2.03;;;;;;;13.14;26.65;97501.09;5031226;28;20466;-27
2022/03/10 07:14:09;;;;;;;4.13;2.10;;;;;;;13.13;26.94;97508.50;5031001;28;20112;-27
2022/03/10 07:16:35;;;;;;;4.85;1.95;;;;;;;13.18;26.92;97501.84;5031326;28;20152;-28
2022/03/10 07:19:01;;;;;;;3.97;2.38;;;;;;;13.17;26.74;97506.53;5030748;28;20106;-26
2022/03/10 07:21:26;;;;;;;3.75;2.20;;;;;;;13.15;27.02;97510.84;5031078;28;20021;-28
2022/03/10 07:23:52;;;;;;;3.58;2.20;;;;;;;13.23;26.70;97507.56;5031011;28;20527;-26
2022/03/10 07:26:18;;;;;;;5.05;2.60;;;;;;;13.25;26.67;97510.66;5030895;28;20056;-26
2022/03/10 07:28:44;;;;;;;4.43;2.33;;;;;;;13.15;26.56;97508.91;5031246;28;20022;-27
2022/03/10 07:31:09;;;;;;;4.47;2.55;;;;;;;13.19;26.49;97512.34;5027583;28;20033;-26
2022/03/10 07:33:35;;;;;;;4.28;2.30;;;;;;;13.20;26.90;97513.88;5030737;28;20033;-27
2022/03/10 07:36:01;;;;;;;4.45;2.33;;;;;;;13.15;27.05;97511.63;5030944;28;20033;-27
2022/03/10 07:38:27;;;;;;;4.70;2.30;;;;;;;13.24;26.79;97516.50;5032116;28;20029;-27
2022/03/10 07:40:54;;;;;;;5.57;2.30;;;;;;;13.14;27.10;97520.19;5034641;28;20380;-28
2022/03/10 07:43:20;;;;;;;5.80;2.65;;;;;;;13.11;26.97;97513.59;5033073;28;20064;-27
2022/03/10 07:45:45;;;;;;;4.10;2.28;;;;;;;13.19;27.13;97509.63;5034478;28;20065;-27
2022/03/10 07:48:11;;;;;;;4.57;3.13;;;;;;;13.14;27.39;97515.53;5034474;28;20030;-26
2022/03/10 07:50:37;;;;;;;6.15;3.40;;;;;;;13.15;27.22;97517.06;5034031;28;20030;-26
2022/03/10 07:53:04;;;;;;;7.65;4.28;;;;;;;13.06;27.20;97511.38;5034130;28;20072;-26
2022/03/10 07:55:29;;;;;;;8.45;4.32;;;;;;;12.96;26.60;97512.34;5033993;28;20129;-26
2022/03/10 07:57:56;;;;;;;13.50;5.40;;;;;;;13.09;27.57;97518.72;5033814;28;20112;-27
2022/03/10 08:00:22;;;;;;;11.35;4.82;;;;;;;13.02;27.53;97516.09;5034332;28;20033;-27
2022/03/10 08:02:47;;;;;;;9.30;5.03;;;;;;;13.15;27.30;97519.78;5034440;28;20056;-27
2022/03/10 08:05:13;;;;;;;10.07;5.32;;;;;;;13.14;26.93;97531.06;5040441;28;20136;-27
2022/03/10 08:07:39;;;;;;;8.57;4.85;;;;;;;13.23;27.07;97526.63;5053833;28;20028;-27
2022/03/10 08:10:05;;;;;;;8.70;4.82;;;;;;;13.12;27.46;97520.59;5053092;28;20036;-27
2022/03/10 08:12:33;;;;;;;8.68;5.13;;;;;;;13.09;27.61;97524.16;5045177;28;20440;-26
2022/03/10 08:14:59;;;;;;;10.75;4.60;;;;;;;12.74;27.63;97527.47;5033628;28;20028;-27
2022/03/10 08:17:28;;;;;;;8.52;4.65;;;;;;;13.01;27.50;97530.91;5033433;28;20029;-29
2022/03/10 08:19:55;;;;;;;10.18;5.32;;;;;;;13.16;27.36;97536.91;5031971;28;20394;-27
2022/03/10 08:22:21;;;;;;;7.75;4.40;;;;;;;12.92;27.32;97533.41;5033626;28;20521;-29
2022/03/10 08:24:47;;;;;;;7.82;4.32;;;;;;;12.92;27.57;97533.41;5033823;28;20029;-27
2022/03/10 08:27:15;;;;;;;8.02;4.63;;;;;;;12.86;28.00;97537.75;5040476;28;20580;-26
2022/03/10 08:29:41;;;;;;;7.35;4.70;;;;;;;12.92;27.95;97536.88;5053606;28;20029;-27
2022/03/10 08:32:07;;;;;;;7.15;4.35;;;;;;;13.22;27.36;97532.53;5040725;28;20036;-27
2022/03/10 08:34:33;;;;;;;7.85;4.30;;;;;;;12.89;26.83;97540.44;5033458;28;20029;-27
2022/03/10 08:36:59;;;;;;;6.95;4.00;;;;;;;13.06;27.51;97538.59;5033610;28;20029;-28
2022/03/10 08:39:24;;;;;;;7.45;4.45;;;;;;;12.95;27.62;97538.03;5033328;28;20092;-27
2022/03/10 08:41:51;;;;;;;6.45;4.13;;;;;;;12.74;27.68;97536.41;5033481;28;20036;-26
2022/03/10 08:44:19;;;;;;;6.03;3.95;;;;;;;12.81;27.84;97536.31;5033125;28;20033;-27
2022/03/10 08:46:45;;;;;;;8.35;3.65;;;;;;;12.81;27.66;97538.25;5033051;28;20437;-26
2022/03/10 08:49:10;;;;;;;5.68;3.30;;;;;;;12.84;27.81;97532.00;5032821;28;20025;-27
2022/03/10 08:51:36;;;;;;;6.35;3.78;;;;;;;13.14;27.68;97534.59;5032348;28;20474;-27
2022/03/10 08:54:02;;;;;;;5.78;3.50;;;;;;;13.23;27.51;97540.25;5033383;28;20750;-26
2022/03/10 08:56:28;;;;;;;6.72;4.32;;;;;;;13.04;27.11;97540.97;5032185;28;20072;-26
2022/03/10 08:58:53;;;;;;;6.07;3.20;;;;;;;12.79;28.13;97535.16;5033138;28;20026;-26
2022/03/10 09:01:19;;;;;;;4.93;3.35;;;;;;;12.84;28.20;97537.44;5033082;28;20026;-27
2022/03/10 09:03:45;;;;;;;5.70;2.80;;;;;;;12.68;27.87;97545.47;5032525;28;20064;-27
2022/03/10 09:06:12;;;;;;;6.65;3.92;;;;;;;12.75;28.68;97540.66;5032004;28;20028;-27
2022/03/10 09:08:38;;;;;;;5.47;3.20;;;;;;;13.01;28.28;97541.78;5032550;28;20025;-26
2022/03/10 09:11:04;;;;;;;6.00;3.47;;;;;;;12.95;28.21;97546.19;5032629;28;20033;-27
2022/03/10 09:13:30;;;;;;;5.90;3.33;;;;;;;13.05;28.43;97541.75;5032239;28;20021;-27
2022/03/10 09:15:56;;;;;;;4.15;2.70;;;;;;;12.87;27.82;97536.59;5032353;28;20033;-27
2022/03/10 09:18:21;;;;;;;5.47;3.33;;;;;;;13.16;27.81;97536.91;5032396;28;20394;-27
2022/03/10 09:20:47;;;;;;;4.95;3.10;;;;;;;13.08;28.08;97536.25;5032075;28;20029;-26
2022/03/10 09:23:13;;;;;;;5.78;3.20;;;;;;;13.18;28.05;97529.09;5032427;28;20036;-27
2022/03/10 09:25:38;;;;;;;7.68;4.43;;;;;;;13.21;28.12;97525.53;5032286;28;20049;-27
2022/03/10 09:28:05;;;;;;;7.32;3.90;;;;;;;13.09;27.95;97521.44;5032427;28;20104;-26
2022/03/10 09:30:30;;;;;;;4.45;2.83;;;;;;;13.29;27.71;97526.94;5030507;28;20761;-26
2022/03/10 09:32:57;;;;;;;5.15;2.95;;;;;;;13.32;27.83;97522.63;5032387;28;20029;-27
2022/03/10 09:35:24;;;;;;;5.68;3.33;;;;;;;13.30;28.05;97523.81;5031197;28;20053;-27
2022/03/10 09:37:49;;;;;;;6.97;3.80;;;;;;;13.17;27.80;97517.44;5032063;28;20394;-26
2022/03/10 09:40:15;;;;;;;7.18;4.00;;;;;;;13.29;28.01;97513.31;5032314;28;20028;-27
2022/03/10 09:42:42;;;;;;;7.43;3.45;;;;;;;13.33;28.10;97518.72;5031919;28;20029;-26
2022/03/10 09:45:10;;;;;;;8.27;4.00;;;;;;;13.38;27.82;97512.75;5032408;28;20390;-27
2022/03/10 09:47:40;;;;;;;6.00;3.92;;;;;;;13.33;27.79;97515.97;5032097;28;20069;-26
2022/03/10 09:50:11;;;;;;;7.25;4.25;;;;;;;13.46;27.86;97514.19;5031942;28;20032;-26
2022/03/10 09:52:37;;;;;;;6.30;3.95;;;;;;;13.36;27.88;97512.41;5030868;28;20405;-26
2022/03/10 09:55:05;;;;;;;7.15;3.65;;;;;;;13.42;27.64;97510.75;5031202;28;20039;-27
2022/03/10 09:57:33;;;;;;;7.32;4.03;;;;;;;13.48;27.89;97511.78;5031895;28;20029;-28
2022/03/10 09:59:59;;;;;;;8.45;5.65;;;;;;;13.40;27.90;97513.13;5030593;28;20025;-29
2022/03/10 10:02:27;;;;;;;8.55;5.20;;;;;;;13.46;28.19;97514.19;5031552;28;20374;-28
2022/03/10 10:04:53;;;;;;;8.20;4.75;;;;;;;13.33;28.27;97507.81;5031781;28;20057;-27
2022/03/10 10:07:21;;;;;;;9.23;5.32;;;;;;;13.49;27.80;97511.38;5031569;28;20109;-27
2022/03/10 10:09:55;;;;;;;8.85;5.05;;;;;;;13.51;27.60;97509.00;5030468;28;20382;-27
2022/03/10 10:12:25;;;;;;;6.38;4.78;;;;;;;13.48;27.93;97509.81;5031897;28;20786;-27
2022/03/10 10:14:51;;;;;;;8.38;5.22;;;;;;;13.30;28.10;97515.63;5030384;28;20037;-27
2022/03/10 10:17:25;;;;;;;7.35;4.13;;;;;;;13.50;27.55;97502.00;5031707;28;20036;-27
2022/03/10 10:20:01;;;;;;;8.13;5.35;;;;;;;13.52;27.75;97515.22;5031336;28;20478;-26
2022/03/10 10:22:28;;;;;;;6.38;4.00;;;;;;;13.54;27.59;97508.16;5031389;28;20463;-28
2022/03/10 10:24:59;;;;;;;6.07;3.83;;;;;;;13.54;27.49;97512.84;5031757;28;20485;-28
2022/03/10 10:27:26;;;;;;;8.23;4.40;;;;;;;13.47;27.67;97510.28;5031581;28;20029;-26
2022/03/10 10:29:56;;;;;;;7.32;4.22;;;;;;;13.55;27.49;97506.22;5031444;28;20461;-26
2022/03/10 10:32:52;;;;;;;7.60;4.10;;;;;;;13.65;27.48;97505.22;5029630;28;20029;-26
2022/03/10 10:35:22;;;;;;;6.05;3.40;;;;;;;13.61;27.40;97497.09;5031567;28;20030;-27
2022/03/10 10:37:50;;;;;;;6.22;3.38;;;;;;;13.70;27.56;97504.75;5031456;28;20025;-27
2022/03/10 10:40:24;;;;;;;5.22;3.53;;;;;;;13.58;27.36;97500.69;5031179;28;20107;-28
2022/03/10 10:42:51;;;;;;;4.68;2.97;;;;;;;13.51;27.91;97487.19;5031085;28;20806;-26
2022/03/10 10:45:37;;;;;;;5.03;3.17;;;;;;;13.61;27.52;97491.66;5030872;28;20033;-28
2022/03/10 10:48:07;;;;;;;5.47;3.00;;;;;;;13.66;27.37;97488.44;5013579;28;20033;-26
2022/03/10 10:50:35;;;;;;;5.05;3.38;;;;;;;13.66;27.24;97491.19;5013559;28;20108;-26
2022/03/10 10:53:02;;;;;;;4.38;2.90;;;;;;;13.65;27.69;97494.31;5013600;28;20462;-28
2022/03/10 10:55:36;;;;;;;5.45;3.10;;;;;;;13.70;27.63;97485.66;5013504;28;20030;-28
2022/03/10 10:58:10;;;;;;;4.82;3.25;;;;;;;13.76;27.57;97492.13;5013476;28;20026;-28
2022/03/10 11:00:44;;;;;;;6.65;3.55;;;;;;;13.72;27.28;97480.56;5013554;28;20049;-26
2022/03/10 11:03:32;;;;;;;6.47;3.38;;;;;;;13.75;27.31;97485.16;5013690;28;20036;-26
2022/03/10 11:05:58;;;;;;;6.10;3.28;;;;;;;13.75;27.70;97479.69;5013142;28;20092;-26
2022/03/10 11:08:25;;;;;;;4.38;2.80;;;;;;;13.80;27.35;97470.25;5030580;28;20029;-26
2022/03/10 11:10:53;;;;;;;3.65;2.70;;;;;;;13.78;27.33;97467.97;5030534;28;20079;-26
2022/03/10 11:13:18;;;;;;;5.93;3.17;;;;;;;13.78;27.58;97473.41;5032126;28;20021;-27
2022/03/10 11:15:45;;;;;;;5.35;2.67;;;;;;;13.80;27.53;97478.44;5035079;28;20388;-28
2022/03/10 11:18:13;;;;;;;6.28;3.08;;;;;;;13.72;27.47;97469.66;5034168;28;20488;-27
2022/03/10 11:20:42;;;;;;;3.83;2.70;;;;;;;13.80;27.46;97462.09;5034418;28;20083;-26
2022/03/10 11:23:19;;;;;;;4.47;2.97;;;;;;;13.76;27.35;97461.38;5035041;28;20401;-26
2022/03/10 11:26:13;;;;;;;5.75;3.40;;;;;;;13.82;27.30;97455.03;5034794;28;20033;-27
2022/03/10 11:28:46;;;;;;;6.60;2.63;;;;;;;13.84;27.47;97447.19;5034833;28;20033;-28
2022/03/10 11:31:14;;;;;;;5.72;3.03;;;;;;;13.78;27.04;97443.41;5033036;28;20040;-26
2022/03/10 11:33:40;;;;;;;6.03;3.08;;;;;;;13.79;27.45;97442.22;5034579;28;20029;-28
2022/03/10 11:36:23;;;;;;;4.75;3.15;;;;;;;13.76;27.22;97443.06;5033150;28;20516;-26
2022/03/10 11:39:07;;;;;;;5.22;2.80;;;;;;;13.87;27.05;97438.16;5034697;28;20140;-27